logo
Search for airport 
image banner adimage banner adimage banner ad
image banner ad

ED0068 - Vaihingen

Located in , Germany

ICAO - , IATA -

Data provided by Airmate  

General information

Coordinates: N48°56'11" E8°58'45"
Elevation is 1027 feet MSL.
Magnetic variation is 3.0000° East
View others Airports in Baden-Württemberg

Operational data

Special qualification required
Current time UTC:
Current local time:
Weather at : EDDS - Stuttgart ( 33 km )
METAR: EDDS 231650Z AUTO VRB01KT 9999 BKN043 21/18 Q1019
View NOTAMs / SUP AIP / TFR affecting this airport [VIEW]
Communications frequencies: [VIEW]

Runways:

RWY identifierQFULength (ft)Width (ft)SurfaceLDA (ft)
0990°82098GRASS
27270°82098GRASS

Airport contact information

Address: Germany

Satellite view of ED0068